Time;durP1;ratioP1;P1;durP2;ratioP2;P2;SDS_P1;SDS_P2;PMS_P1;PMS_P2;Temp;Humidity;BMP_temperature;BMP_pressure;BME280_temperature;BME280_humidity;BME280_pressure;Samples;Min_cycle;Max_cycle;Signal;HPM_P1;HPM_P2
2023/04/20 00:01:26;;;;;;;7.97;7.37;;;2.40;99.90;;;3.03;95.69;97924.81;5162529;28;20237;-62
2023/04/20 00:03:59;;;;;;;8.20;7.70;;;2.30;99.90;;;3.00;95.38;97915.34;5168648;28;20203;-62
2023/04/20 00:06:33;;;;;;;8.67;7.90;;;2.30;99.90;;;2.99;95.98;97917.75;5153772;28;20234;-62
2023/04/20 00:09:08;;;;;;;7.83;7.23;;;2.30;99.90;;;2.94;95.26;97909.78;5156222;28;20230;-62
2023/04/20 00:11:41;;;;;;;7.93;7.33;;;2.20;99.90;;;2.94;95.19;97913.19;5153028;28;20207;-62
2023/04/20 00:14:14;;;;;;;7.83;7.23;;;2.20;99.90;;;2.94;95.51;97902.19;5161664;28;20998;-62
2023/04/20 00:16:48;;;;;;;8.17;7.47;;;2.20;99.90;;;2.90;95.62;97902.69;5149701;28;20230;-62
2023/04/20 00:19:22;;;;;;;7.37;6.77;;;2.10;99.90;;;2.85;95.13;97898.88;5160571;28;20670;-62
2023/04/20 00:21:55;;;;;;;7.53;6.90;;;2.10;99.90;;;2.88;95.36;97894.09;5152582;28;20205;-63
2023/04/20 00:24:29;;;;;;;7.30;6.70;;;2.10;99.90;;;2.86;95.10;97896.50;5149272;28;20211;-62
2023/04/20 00:27:02;;;;;;;6.67;6.10;;;2.10;99.90;;;2.89;94.66;97890.81;5149880;28;20224;-63
2023/04/20 00:29:35;;;;;;;7.00;6.40;;;2.10;99.90;;;2.84;95.02;97887.03;5154593;28;20205;-63
2023/04/20 00:32:09;;;;;;;7.43;6.73;;;2.00;99.90;;;2.81;94.71;97882.59;5150832;28;20324;-62
2023/04/20 00:34:42;;;;;;;7.10;6.50;;;2.00;99.90;;;2.76;95.43;97878.78;5147803;28;20256;-62
2023/04/20 00:37:15;;;;;;;7.90;7.20;;;2.00;99.90;;;2.77;95.61;97875.50;5150655;28;20794;-62
2023/04/20 00:39:49;;;;;;;7.37;6.70;;;2.00;99.90;;;2.76;95.37;97870.31;5150246;28;20206;-62
2023/04/20 00:42:22;;;;;;;7.63;6.93;;;2.00;99.90;;;2.64;96.26;97868.50;5148911;28;20701;-61
2023/04/20 00:44:55;;;;;;;7.63;7.03;;;1.90;99.90;;;2.60;95.47;97861.41;5160543;28;20238;-62
2023/04/20 00:47:28;;;;;;;7.10;6.50;;;1.90;99.90;;;2.58;95.67;97857.88;5155582;28;20221;-62
2023/04/20 00:50:02;;;;;;;7.87;7.20;;;1.80;99.90;;;2.50;95.71;97861.38;5152115;28;20236;-62
2023/04/20 00:52:35;;;;;;;9.37;8.40;;;1.80;99.90;;;2.47;95.65;97854.41;5152722;28;20314;-62
2023/04/20 00:55:10;;;;;;;8.10;7.40;;;1.70;99.90;;;2.45;96.14;97855.03;5152900;28;20595;-61
2023/04/20 00:57:44;;;;;;;8.10;7.50;;;1.70;99.90;;;2.39;96.26;97855.38;5147890;28;20215;-62
2023/04/20 01:00:19;;;;;;;7.90;7.17;;;1.70;99.90;;;2.41;96.09;97845.44;5148597;28;20573;-62
2023/04/20 01:02:52;;;;;;;7.77;7.07;;;1.70;99.90;;;2.38;96.63;97842.66;5156926;28;20216;-61
2023/04/20 01:05:25;;;;;;;7.80;7.10;;;1.60;99.90;;;2.38;96.66;97827.50;5159903;28;20232;-62
2023/04/20 01:07:58;;;;;;;7.33;6.73;;;1.70;99.90;;;2.39;96.08;97830.16;5157232;28;20206;-62
2023/04/20 01:10:33;;;;;;;6.60;6.10;;;1.60;99.90;;;2.37;96.83;97824.09;5152439;28;20307;-63
2023/04/20 01:13:06;;;;;;;7.33;6.70;;;1.60;99.90;;;2.17;95.71;97829.00;5155005;28;20209;-62
2023/04/20 01:15:39;;;;;;;9.17;7.40;;;1.50;99.90;;;2.19;95.94;97828.41;5162475;28;20215;-62
2023/04/20 01:18:12;;;;;;;8.07;7.37;;;1.50;99.90;;;2.20;96.53;97819.19;5159819;28;20629;-61
2023/04/20 01:20:46;;;;;;;6.87;6.47;;;1.50;99.90;;;2.13;96.95;97815.25;5156245;28;20587;-62
2023/04/20 01:23:21;;;;;;;7.53;6.83;;;1.50;99.90;;;2.16;97.33;97815.53;5161076;28;20818;-61
2023/04/20 01:25:54;;;;;;;8.17;7.50;;;1.50;99.90;;;2.22;97.39;97810.13;5151796;28;20268;-61
2023/04/20 01:28:27;;;;;;;8.70;7.97;;;1.50;99.90;;;2.16;97.20;97805.44;5160526;28;20218;-60
2023/04/20 01:31:00;;;;;;;7.70;7.00;;;1.50;99.90;;;2.10;96.42;97807.44;5157117;28;20207;-62
2023/04/20 01:33:34;;;;;;;7.47;6.87;;;1.40;99.90;;;2.17;96.60;97801.28;5163363;28;20214;-62
2023/04/20 01:36:08;;;;;;;7.80;7.20;;;1.40;99.90;;;2.16;95.64;97790.31;5156111;28;20308;-62
2023/04/20 01:38:43;;;;;;;8.13;7.40;;;1.40;99.90;;;2.06;96.88;97787.75;5154088;28;20212;-62
2023/04/20 01:41:16;;;;;;;8.13;7.53;;;1.40;99.90;;;2.08;96.98;97786.22;5162648;28;20221;-61
2023/04/20 01:43:49;;;;;;;8.60;7.90;;;1.40;99.90;;;1.98;97.25;97788.72;5156121;28;20300;-62
2023/04/20 01:46:22;;;;;;;8.90;8.13;;;1.30;99.90;;;1.93;97.03;97779.84;5147746;28;20241;-62
2023/04/20 01:48:55;;;;;;;8.40;7.70;;;1.30;99.90;;;1.89;96.51;97772.75;5189956;28;20303;-60
2023/04/20 01:51:28;;;;;;;9.63;8.83;;;1.30;99.90;;;1.84;96.24;97763.91;5153402;28;20217;-62
2023/04/20 01:54:03;;;;;;;9.13;8.27;;;1.20;99.90;;;1.79;96.76;97761.88;5148895;28;20203;-62
2023/04/20 01:56:36;;;;;;;9.00;8.20;;;1.20;99.90;;;1.77;96.90;97759.94;5154481;28;20731;-62
2023/04/20 01:59:09;;;;;;;9.60;8.70;;;1.20;99.90;;;1.93;98.01;97754.66;5158656;28;20208;-62
2023/04/20 02:01:42;;;;;;;10.23;9.17;;;1.30;99.90;;;2.06;97.82;97770.13;5176531;28;20700;-62
2023/04/20 02:04:15;;;;;;;9.00;8.20;;;1.30;99.90;;;2.19;95.49;97772.94;5164642;28;20302;-63
2023/04/20 02:06:49;;;;;;;9.23;7.83;;;1.40;99.90;;;1.88;95.04;97779.44;5157253;28;20225;-63
2023/04/20 02:09:23;;;;;;;9.73;8.43;;;1.20;99.90;;;1.72;96.56;97777.19;5149875;28;20203;-62
2023/04/20 02:11:56;;;;;;;8.90;8.00;;;1.00;99.90;;;1.56;97.33;97776.56;5177317;28;20751;-61
2023/04/20 02:14:30;;;;;;;9.87;8.97;;;1.00;99.90;;;1.44;97.89;97771.31;5186368;28;20205;-61
2023/04/20 02:17:03;;;;;;;10.27;9.37;;;0.90;99.90;;;1.35;98.38;97766.34;5170374;28;20746;-62
2023/04/20 02:19:36;;;;;;;10.53;9.73;;;0.90;99.90;;;1.27;99.75;97766.38;5156495;28;20659;-62
2023/04/20 02:22:09;;;;;;;10.70;9.73;;;0.80;99.90;;;1.41;99.64;97760.09;5177436;28;20622;-62
2023/04/20 02:24:44;;;;;;;11.43;10.40;;;0.90;99.90;;;1.49;99.03;97757.50;5168369;28;20207;-62
2023/04/20 02:27:17;;;;;;;10.43;9.53;;;1.00;99.90;;;1.52;99.66;97749.34;5155318;28;20235;-62
2023/04/20 02:29:50;;;;;;;12.23;11.03;;;1.00;99.90;;;1.50;99.61;97763.44;5163310;28;20207;-62
2023/04/20 02:32:23;;;;;;;11.87;10.77;;;1.00;99.90;;;1.73;98.80;97756.28;5175673;28;20308;-61
2023/04/20 02:34:56;;;;;;;11.73;10.63;;;1.10;99.90;;;1.48;98.01;97748.16;5179359;28;20204;-61
2023/04/20 02:37:30;;;;;;;12.17;10.97;;;1.00;99.90;;;1.47;98.59;97753.06;5163839;28;20200;-62
2023/04/20 02:40:07;;;;;;;11.33;10.23;;;0.90;99.90;;;1.54;98.92;97757.91;5167736;28;20191;-62
2023/04/20 02:42:41;;;;;;;10.60;9.63;;;1.00;99.90;;;1.62;98.84;97744.38;5151970;28;20217;-62
2023/04/20 02:45:14;;;;;;;10.97;9.43;;;1.00;99.90;;;1.68;99.18;97747.44;5155279;28;20216;-62
2023/04/20 02:47:47;;;;;;;10.47;9.47;;;1.10;99.90;;;1.57;98.17;97750.63;5176443;28;20271;-62
2023/04/20 02:50:20;;;;;;;10.37;9.47;;;1.00;99.90;;;1.51;98.36;97742.53;5169564;28;20295;-62
2023/04/20 02:52:53;;;;;;;10.13;9.23;;;0.90;99.90;;;1.58;98.00;97745.72;5177167;28;20560;-62
2023/04/20 02:55:28;;;;;;;10.33;9.40;;;1.00;99.90;;;1.63;98.45;97741.13;5179993;28;20236;-61
2023/04/20 02:58:01;;;;;;;9.93;9.00;;;1.00;99.90;;;1.59;98.60;97728.97;5168065;28;20670;-62
2023/04/20 03:00:34;;;;;;;11.07;9.90;;;1.00;99.90;;;1.65;99.24;97736.19;5151940;28;20205;-62
2023/04/20 03:03:07;;;;;;;10.23;9.40;;;1.10;99.90;;;1.64;99.04;97735.31;5160047;28;20649;-61
2023/04/20 03:05:40;;;;;;;11.37;10.20;;;1.00;99.90;;;1.48;98.50;97732.19;5171316;28;20225;-62
2023/04/20 03:08:13;;;;;;;11.33;10.23;;;0.90;99.90;;;1.39;98.47;97736.41;5180003;28;20224;-61
2023/04/20 03:10:48;;;;;;;11.43;10.37;;;0.80;99.90;;;1.29;99.30;97725.50;5171246;28;20294;-62
2023/04/20 03:13:21;;;;;;;11.57;10.37;;;0.80;99.90;;;1.28;99.34;97728.75;5187381;28;20196;-62
2023/04/20 03:15:54;;;;;;;11.63;10.53;;;0.70;99.90;;;1.18;99.62;97721.13;5165406;28;20232;-62
2023/04/20 03:18:27;;;;;;;11.80;10.57;;;0.70;99.90;;;1.09;100.00;97722.81;5164117;28;20208;-61
2023/04/20 03:21:00;;;;;;;12.23;10.93;;;0.60;99.90;;;1.21;99.85;97716.38;5187200;28;20242;-61
2023/04/20 03:23:33;;;;;;;11.43;10.33;;;0.70;99.90;;;1.15;99.70;97720.84;5189119;28;20214;-60
2023/04/20 03:26:08;;;;;;;12.67;11.47;;;0.70;99.90;;;1.09;100.00;97720.31;5184309;28;20253;-62
2023/04/20 03:28:41;;;;;;;13.03;11.93;;;0.60;99.90;;;0.93;100.00;97722.16;5165130;28;20210;-62
2023/04/20 03:31:14;;;;;;;10.77;9.67;;;0.60;99.90;;;1.07;100.00;97722.66;5186709;28;20200;-64
2023/04/20 03:33:47;;;;;;;12.20;10.80;;;0.60;99.90;;;1.03;100.00;97719.72;5160137;28;20655;-61
2023/04/20 03:36:21;;;;;;;11.63;10.53;;;0.50;99.90;;;0.92;100.00;97720.38;5154343;28;20564;-61
2023/04/20 03:38:54;;;;;;;11.97;10.87;;;0.50;99.90;;;0.88;100.00;97719.22;5153963;28;20265;-61
2023/04/20 03:41:28;;;;;;;11.97;10.67;;;0.40;99.90;;;0.93;100.00;97717.13;5152124;28;20204;-62
2023/04/20 03:44:01;;;;;;;11.13;10.13;;;0.40;99.90;;;0.97;100.00;97720.03;5149108;28;20567;-61
2023/04/20 03:46:35;;;;;;;12.43;11.10;;;0.50;99.90;;;0.88;100.00;97720.09;5161253;28;20662;-62
2023/04/20 03:49:08;;;;;;;11.77;10.60;;;0.40;99.90;;;0.95;100.00;97715.66;5161932;28;20257;-61
2023/04/20 03:51:41;;;;;;;11.90;10.90;;;0.50;99.90;;;0.82;100.00;97709.47;5149293;28;20207;-62
2023/04/20 03:54:14;;;;;;;12.90;11.70;;;0.40;99.90;;;0.85;100.00;97699.69;5152803;28;20216;-61
2023/04/20 03:56:49;;;;;;;11.63;10.43;;;0.40;99.90;;;0.89;100.00;97704.28;5154092;28;20226;-62
2023/04/20 03:59:22;;;;;;;11.13;10.13;;;0.40;99.90;;;0.84;100.00;97702.97;5155933;28;20211;-59
2023/04/20 04:01:55;;;;;;;11.67;10.57;;;0.40;99.90;;;0.84;100.00;97697.06;5174729;28;20203;-62
2023/04/20 04:04:28;;;;;;;12.13;10.93;;;0.40;99.90;;;0.75;100.00;97707.16;5150395;28;20203;-62
2023/04/20 04:07:02;;;;;;;12.30;11.17;;;0.30;99.90;;;0.78;100.00;97697.38;5154753;28;20750;-62
2023/04/20 04:09:35;;;;;;;12.57;11.33;;;0.30;99.90;;;0.76;100.00;97701.38;5148305;28;20198;-62
2023/04/20 04:12:09;;;;;;;11.80;10.70;;;0.30;99.90;;;0.72;100.00;97698.44;5160600;28;20690;-62
2023/04/20 04:14:42;;;;;;;12.27;11.07;;;0.30;99.90;;;0.78;100.00;97707.44;5158096;28;20218;-62
2023/04/20 04:17:15;;;;;;;13.10;11.90;;;0.30;99.90;;;0.86;100.00;97708.16;5168399;28;20224;-63
2023/04/20 04:19:49;;;;;;;12.40;11.20;;;0.30;99.90;;;0.95;100.00;97695.53;5154477;28;20252;-62
2023/04/20 04:22:22;;;;;;;12.63;11.57;;;0.40;99.90;;;0.96;100.00;97700.69;5174927;28;20599;-61
2023/04/20 04:24:55;;;;;;;13.77;12.30;;;0.40;99.90;;;0.86;100.00;97700.59;5156548;28;20204;-62
2023/04/20 04:27:33;;;;;;;12.10;11.00;;;0.40;99.90;;;0.95;100.00;97700.56;5151725;28;20315;-63
2023/04/20 04:30:09;;;;;;;12.87;11.77;;;0.40;99.90;;;0.96;100.00;97703.19;5146721;28;20591;-63
2023/04/20 04:32:43;;;;;;;12.27;11.17;;;0.40;99.90;;;0.97;100.00;97707.47;5152121;28;20290;-62
2023/04/20 04:35:16;;;;;;;13.67;12.37;;;0.50;99.90;;;0.98;100.00;97704.22;5160691;28;20477;-61
2023/04/20 04:37:51;;;;;;;12.43;11.33;;;0.50;99.90;;;0.99;100.00;97703.47;5159261;28;20212;-62
2023/04/20 04:40:24;;;;;;;13.33;11.57;;;0.50;99.90;;;0.96;100.00;97707.34;5160985;28;20213;-62
2023/04/20 04:42:59;;;;;;;13.47;12.17;;;0.50;99.90;;;0.92;100.00;97712.81;5147772;28;20294;-62
2023/04/20 04:45:32;;;;;;;13.03;11.83;;;0.50;99.90;;;0.98;100.00;97713.41;5151521;28;20325;-61
2023/04/20 04:48:06;;;;;;;13.97;12.57;;;0.50;99.90;;;0.95;100.00;97706.47;5170358;28;20222;-62
2023/04/20 04:50:41;;;;;;;14.20;12.80;;;0.50;99.90;;;0.89;100.00;97699.25;5162280;28;20210;-62
2023/04/20 04:53:14;;;;;;;14.40;13.10;;;0.50;99.90;;;1.03;100.00;97694.56;5148451;28;20793;-62
2023/04/20 04:55:47;;;;;;;13.67;12.30;;;0.50;99.90;;;1.08;100.00;97698.38;5150454;28;20229;-61
2023/04/20 04:58:21;;;;;;;13.40;12.10;;;0.60;99.90;;;1.12;100.00;97698.81;5169391;28;20818;-62
2023/04/20 05:00:54;;;;;;;13.17;11.87;;;0.70;99.90;;;1.25;100.00;97697.38;5183215;28;20204;-61
2023/04/20 05:03:27;;;;;;;12.80;11.60;;;0.80;99.90;;;1.40;100.00;97697.88;5161853;28;20212;-62
2023/04/20 05:06:01;;;;;;;12.83;11.63;;;0.90;99.90;;;1.41;100.00;97694.63;5160414;28;20254;-62
2023/04/20 05:08:34;;;;;;;13.43;12.23;;;0.90;99.90;;;1.33;100.00;97696.44;5162789;28;20316;-61
2023/04/20 05:11:07;;;;;;;13.60;12.20;;;0.90;99.90;;;1.46;100.00;97695.88;5160225;28;20312;-63
2023/04/20 05:13:42;;;;;;;12.37;11.20;;;0.90;99.90;;;1.42;99.61;97703.94;5153774;28;20237;-62
2023/04/20 05:16:16;;;;;;;13.00;11.80;;;0.90;99.90;;;1.56;99.50;97701.88;5154687;28;20706;-62
2023/04/20 05:18:49;;;;;;;13.57;12.37;;;1.10;99.90;;;1.76;99.57;97705.28;5157598;28;20208;-61
2023/04/20 05:21:22;;;;;;;13.13;11.90;;;1.20;99.90;;;2.04;99.70;97698.50;5169441;28;20202;-63
2023/04/20 05:23:55;;;;;;;13.23;11.93;;;1.40;99.90;;;2.31;98.95;97694.06;5150994;28;20214;-63
2023/04/20 05:26:28;;;;;;;12.10;11.00;;;1.60;99.90;;;2.65;97.31;97703.75;5149865;28;20229;-62
2023/04/20 05:29:03;;;;;;;12.30;11.20;;;1.80;99.90;;;3.10;96.55;97693.22;5170374;28;20674;-63
2023/04/20 05:31:36;;;;;;;11.20;10.27;;;2.20;99.90;;;3.39;94.16;97690.53;5162117;28;20611;-62
2023/04/20 05:34:09;;;;;;;11.93;10.00;;;2.40;99.90;;;3.66;92.87;97692.66;5162363;28;20249;-62
2023/04/20 05:36:43;;;;;;;12.90;11.73;;;2.60;99.90;;;3.80;92.21;97687.06;5185004;28;20235;-63
2023/04/20 05:39:16;;;;;;;11.43;10.40;;;2.70;99.90;;;3.81;91.25;97686.31;5160963;28;20574;-62
2023/04/20 05:41:49;;;;;;;12.43;11.17;;;2.80;99.90;;;3.68;90.64;97686.09;5172683;28;20651;-65
2023/04/20 05:44:24;;;;;;;12.03;10.93;;;2.70;99.90;;;3.52;90.38;97687.41;5163008;28;20212;-65
2023/04/20 05:46:57;;;;;;;11.73;10.73;;;2.60;99.90;;;3.50;91.51;97691.44;5161553;28;20232;-64
2023/04/20 05:49:30;;;;;;;12.93;11.73;;;2.50;99.90;;;3.43;90.60;97690.78;5203491;28;20212;-63
2023/04/20 05:52:03;;;;;;;12.23;11.03;;;2.50;99.90;;;3.22;89.41;97689.94;5212664;28;20203;-63
2023/04/20 05:54:36;;;;;;;12.37;11.17;;;2.40;99.90;;;3.18;89.95;97688.81;5160092;28;20297;-63
2023/04/20 05:57:10;;;;;;;12.63;11.50;;;2.30;99.90;;;3.17;91.78;97692.06;5156762;28;20227;-63
2023/04/20 05:59:45;;;;;;;11.77;10.67;;;2.30;99.90;;;3.19;90.82;97684.63;5200443;28;20202;-63
2023/04/20 06:02:18;;;;;;;14.63;12.20;;;2.40;99.90;;;3.50;92.09;97682.97;5208600;28;20303;-63
2023/04/20 06:04:52;;;;;;;12.63;11.23;;;2.60;99.90;;;3.91;90.05;97677.81;5159430;28;20294;-63
2023/04/20 06:07:25;;;;;;;12.70;11.50;;;2.90;99.90;;;4.82;86.52;97679.03;5157767;28;20483;-63
2023/04/20 06:09:59;;;;;;;12.30;11.10;;;3.60;99.90;;;5.29;84.99;97669.03;5187295;28;20229;-63
2023/04/20 06:12:32;;;;;;;11.97;10.93;;;4.00;99.90;;;5.31;82.79;97675.09;5151068;28;20302;-64
2023/04/20 06:15:09;;;;;;;11.37;10.37;;;4.00;99.90;;;5.18;82.66;97664.84;5160899;28;20591;-62
2023/04/20 06:17:43;;;;;;;11.47;10.47;;;4.00;99.90;;;4.95;83.32;97674.13;5150977;28;20199;-63
2023/04/20 06:20:16;;;;;;;12.27;11.17;;;3.80;99.90;;;4.79;83.55;97672.84;5157860;28;20213;-62
2023/04/20 06:22:49;;;;;;;12.20;11.00;;;3.70;99.90;;;4.69;84.45;97671.25;5169033;28;20290;-63
2023/04/20 06:25:23;;;;;;;12.70;11.40;;;3.60;99.90;;;4.59;84.66;97671.31;5157327;28;20231;-63
2023/04/20 06:27:56;;;;;;;13.93;12.53;;;3.50;99.90;;;4.65;85.35;97669.25;5154421;28;20291;-63
2023/04/20 06:30:31;;;;;;;14.23;12.73;;;3.50;99.90;;;4.48;84.98;97661.25;5164802;28;20315;-63
2023/04/20 06:33:05;;;;;;;13.20;11.97;;;3.40;99.90;;;4.38;86.50;97670.53;5174025;28;20714;-63
2023/04/20 06:35:40;;;;;;;14.50;13.30;;;3.40;99.90;;;4.46;86.78;97672.94;5154613;28;20224;-63
2023/04/20 06:38:13;;;;;;;13.60;12.40;;;3.50;99.90;;;4.78;86.52;97666.91;5159949;28;20305;-62
2023/04/20 06:40:46;;;;;;;13.23;11.93;;;3.70;99.90;;;4.68;85.44;97656.84;5151215;28;20225;-63
2023/04/20 06:43:19;;;;;;;12.83;11.73;;;3.70;99.90;;;4.89;85.40;97655.94;5153294;28;20638;-63
2023/04/20 06:45:54;;;;;;;12.80;11.70;;;3.80;99.90;;;4.82;84.63;97657.88;5151930;28;20303;-63
2023/04/20 06:48:27;;;;;;;13.07;11.60;;;3.80;99.90;;;4.82;84.55;97653.69;5155558;28;20230;-63
2023/04/20 06:51:05;;;;;;;13.43;12.20;;;3.80;99.90;;;4.82;85.10;97653.69;5181561;28;20311;-65
2023/04/20 06:53:38;;;;;;;16.60;14.80;;;3.90;99.90;;;4.82;86.89;97657.88;5156705;28;20233;-64
2023/04/20 06:56:11;;;;;;;17.73;14.90;;;3.90;99.90;;;4.99;86.85;97661.69;5155371;28;20226;-63
2023/04/20 06:58:44;;;;;;;14.23;12.73;;;4.00;99.90;;;5.49;84.76;97657.81;5159486;28;20239;-62
2023/04/20 07:01:18;;;;;;;14.07;12.33;;;4.40;99.90;;;5.69;82.75;97649.13;5164689;28;20199;-63
2023/04/20 07:03:52;;;;;;;14.43;12.90;;;4.60;99.90;;;6.00;82.30;97652.25;5162031;28;20203;-63
2023/04/20 07:06:26;;;;;;;16.03;14.47;;;4.80;99.90;;;5.91;81.37;97656.63;5154838;28;20334;-64
2023/04/20 07:08:59;;;;;;;14.73;13.33;;;4.90;99.90;;;5.92;81.27;97653.31;5155745;28;20246;-63
2023/04/20 07:11:32;;;;;;;12.57;11.37;;;5.00;99.90;;;5.77;80.96;97655.63;5185388;28;20196;-63
2023/04/20 07:14:05;;;;;;;13.00;11.70;;;4.90;99.90;;;5.48;82.35;97650.13;5158959;28;20204;-63
2023/04/20 07:16:40;;;;;;;13.20;11.90;;;4.70;99.90;;;5.43;82.90;97648.09;5156378;28;20227;-63
2023/04/20 07:19:13;;;;;;;12.27;11.17;;;4.60;99.90;;;5.49;83.84;97649.34;5156062;28;20625;-63
2023/04/20 07:21:46;;;;;;;12.63;11.43;;;4.70;99.90;;;5.83;81.76;97645.94;5155578;28;20214;-62
2023/04/20 07:24:19;;;;;;;16.70;15.10;;;4.90;99.90;;;5.62;83.40;97644.41;5157196;28;20199;-62
2023/04/20 07:26:54;;;;;;;13.93;12.73;;;4.80;99.90;;;5.54;83.86;97646.38;5158978;28;20268;-62
2023/04/20 07:29:27;;;;;;;15.10;13.80;;;4.70;99.90;;;5.64;83.61;97647.94;5161486;28;20310;-62
2023/04/20 07:32:01;;;;;;;14.27;13.03;;;4.70;99.90;;;5.86;81.91;97647.81;5177252;28;20565;-63
2023/04/20 07:34:35;;;;;;;14.57;13.37;;;4.90;99.90;;;5.65;83.52;97654.75;5205479;28;20237;-64
2023/04/20 07:37:08;;;;;;;14.57;13.27;;;4.80;99.90;;;5.77;83.68;97654.75;5153482;28;20224;-62
2023/04/20 07:39:41;;;;;;;13.57;12.37;;;4.80;99.90;;;5.76;84.44;97664.03;5160126;28;20200;-63
2023/04/20 07:42:14;;;;;;;13.17;11.97;;;4.80;99.90;;;5.80;83.42;97657.50;5158779;28;20290;-63
2023/04/20 07:44:47;;;;;;;12.97;11.87;;;4.90;99.90;;;5.77;84.97;97650.56;5157993;28;20208;-63
2023/04/20 07:47:21;;;;;;;13.23;12.03;;;4.90;99.90;;;5.92;85.30;97653.31;5158111;28;20219;-62
2023/04/20 07:49:56;;;;;;;13.97;12.50;;;5.10;99.90;;;6.23;82.49;97648.78;5154972;28;20317;-63
2023/04/20 07:52:29;;;;;;;13.97;12.67;;;5.30;99.90;;;6.26;82.31;97645.59;5172308;28;20686;-63
2023/04/20 07:55:02;;;;;;;13.63;12.23;;;5.40;99.90;;;6.30;83.06;97651.00;5157867;28;20645;-64
2023/04/20 07:57:35;;;;;;;13.87;12.53;;;5.40;99.90;;;6.54;81.09;97645.84;5156713;28;20203;-64
2023/04/20 08:00:11;;;;;;;14.17;12.87;;;5.60;99.90;;;6.43;82.73;97652.72;5159923;28;20206;-63
2023/04/20 08:02:46;;;;;;;14.07;12.77;;;5.60;99.90;;;6.80;79.87;97655.25;5184453;28;20201;-63
2023/04/20 08:05:19;;;;;;;14.43;12.53;;;5.80;99.90;;;6.92;78.93;97657.72;5159890;28;20222;-63
2023/04/20 08:07:53;;;;;;;13.80;12.50;;;6.10;99.90;;;6.93;80.34;97651.91;5159125;28;20207;-62
2023/04/20 08:10:26;;;;;;;13.53;12.33;;;6.00;99.90;;;6.79;80.92;97650.09;5169678;28;20235;-64
2023/04/20 08:12:59;;;;;;;14.67;13.37;;;6.00;99.90;;;6.69;80.95;97641.81;5204077;28;20222;-64
2023/04/20 08:15:32;;;;;;;13.57;12.33;;;5.90;99.90;;;6.72;81.41;97636.97;5174077;28;20306;-63
2023/04/20 08:18:06;;;;;;;13.80;12.37;;;5.90;99.90;;;6.85;82.40;97628.50;5183864;28;20227;-64
2023/04/20 08:20:39;;;;;;;14.00;12.63;;;6.00;99.90;;;7.13;81.26;97630.38;5157976;28;20261;-64
2023/04/20 08:23:13;;;;;;;13.57;12.23;;;6.20;99.90;;;7.14;82.10;97627.03;5155714;28;20294;-62
2023/04/20 08:25:46;;;;;;;14.63;13.33;;;6.20;99.90;;;7.15;81.70;97627.16;5157563;28;20698;-63
2023/04/20 08:28:19;;;;;;;13.43;12.07;;;6.30;99.90;;;7.10;80.68;97625.09;5183385;28;20574;-62
2023/04/20 08:31:06;;;;;;;13.67;12.37;;;6.20;99.90;;;7.11;81.71;97630.25;5160611;28;20220;-63
2023/04/20 08:33:40;;;;;;;13.47;12.17;;;6.20;99.90;;;7.21;82.34;97625.00;5193035;28;20240;-63
2023/04/20 08:36:14;;;;;;;14.70;13.40;;;6.30;99.90;;;7.47;80.46;97627.47;5205145;28;20301;-63
2023/04/20 08:38:54;;;;;;;18.70;15.27;;;6.50;99.90;;;7.36;80.96;97619.16;5161988;28;20203;-63
2023/04/20 08:41:27;;;;;;;35.43;23.67;;;6.50;99.90;;;7.60;79.98;97617.31;5170788;28;20214;-63
2023/04/20 08:44:00;;;;;;;17.93;14.50;;;6.70;99.90;;;7.37;80.96;97611.63;5191257;28;20207;-63
2023/04/20 08:46:34;;;;;;;13.97;12.80;;;6.60;99.90;;;7.84;79.64;97615.44;5179629;28;20587;-63
2023/04/20 08:49:12;;;;;;;13.40;12.20;;;6.90;99.90;;;7.48;79.75;97609.78;5199046;28;20203;-64
2023/04/20 08:51:47;;;;;;;13.33;12.13;;;6.90;99.90;;;7.36;80.87;97614.09;5178444;28;20649;-63
2023/04/20 08:54:20;;;;;;;14.07;12.70;;;6.90;99.90;;;7.37;81.49;97620.91;5159819;28;20207;-62
2023/04/20 08:56:55;;;;;;;14.60;13.23;;;6.90;99.90;;;7.80;79.20;97622.00;5166879;28;20349;-64
2023/04/20 08:59:29;;;;;;;14.13;12.93;;;7.20;99.90;;;7.40;80.49;97616.03;5146787;28;20199;-63
2023/04/20 09:02:10;;;;;;;14.23;12.93;;;7.10;99.90;;;7.34;82.03;97611.44;5146988;28;20611;-63
2023/04/20 09:04:47;;;;;;;13.37;12.27;;;7.00;99.90;;;7.64;81.37;97612.53;5207681;28;20211;-63
2023/04/20 09:07:21;;;;;;;13.93;12.67;;;7.10;99.90;;;7.86;80.30;97612.22;5159013;28;20686;-63
2023/04/20 09:09:55;;;;;;;13.37;12.27;;;7.20;99.90;;;7.83;79.31;97627.28;5154561;28;20228;-63
2023/04/20 09:12:28;;;;;;;13.63;12.23;;;7.20;99.90;;;7.79;79.23;97627.91;5166401;28;20203;-63
2023/04/20 09:15:02;;;;;;;13.63;12.43;;;7.20;99.90;;;7.45;79.70;97619.75;5182381;28;20581;-62
2023/04/20 09:17:39;;;;;;;12.87;11.70;;;7.00;99.90;;;7.73;80.34;97622.44;5176772;28;20617;-63
2023/04/20 09:20:14;;;;;;;13.53;12.27;;;7.10;99.90;;;7.84;78.95;97620.53;5185856;28;20585;-63
2023/04/20 09:22:49;;;;;;;13.70;12.47;;;7.20;99.90;;;7.89;78.30;97611.53;5186268;28;20285;-63
2023/04/20 09:25:25;;;;;;;13.60;12.30;;;7.30;99.90;;;7.90;79.44;97615.88;5177284;28;20227;-64
2023/04/20 09:28:01;;;;;;;13.23;12.03;;;7.30;99.90;;;8.12;78.06;97618.94;5171897;28;20590;-64
2023/04/20 09:30:39;;;;;;;14.10;12.70;;;7.40;99.90;;;8.02;77.75;97623.38;5158633;28;20223;-63
2023/04/20 09:33:13;;;;;;;14.03;12.63;;;7.30;99.90;;;8.27;76.47;97607.94;5158999;28;20207;-63
2023/04/20 09:35:48;;;;;;;13.87;12.40;;;7.70;99.90;;;8.18;77.11;97607.38;5185125;28;20597;-63
2023/04/20 09:38:26;;;;;;;13.40;12.20;;;7.60;99.90;;;7.73;78.51;97607.16;5157674;28;20210;-63
2023/04/20 09:41:00;;;;;;;14.67;13.23;;;7.40;99.90;;;7.53;80.12;97602.47;5152295;28;20584;-63
2023/04/20 09:43:35;;;;;;;14.17;12.87;;;7.10;99.90;;;7.82;79.53;97597.56;5155861;28;20249;-63
2023/04/20 09:46:09;;;;;;;14.07;12.57;;;7.40;99.90;;;7.71;81.13;97593.44;5212271;28;20223;-62
2023/04/20 09:48:42;;;;;;;14.00;12.60;;;7.30;99.90;;;7.83;81.03;97590.81;5193862;28;20198;-63
2023/04/20 09:51:17;;;;;;;12.20;11.00;;;7.40;99.90;;;8.03;82.08;97590.38;5218336;28;20293;-62
2023/04/20 09:53:50;;;;;;;14.73;13.23;;;7.50;99.90;;;7.94;80.04;97592.34;5189160;28;20278;-63
2023/04/20 09:56:26;;;;;;;14.30;12.93;;;7.50;99.90;;;7.74;81.45;97591.09;5173539;28;20237;-63
2023/04/20 09:59:00;;;;;;;14.10;12.70;;;7.40;99.90;;;7.98;80.23;97584.13;5154621;28;20207;-63
2023/04/20 10:01:36;;;;;;;14.07;12.67;;;7.50;99.90;;;8.09;81.62;97588.22;5154485;28;20241;-62
2023/04/20 10:04:12;;;;;;;14.10;12.70;;;7.70;99.90;;;8.19;81.68;97578.63;5169494;28;20250;-63
2023/04/20 10:06:56;;;;;;;15.73;13.53;;;7.70;99.90;;;8.22;81.96;97589.00;5168212;28;20683;-62
2023/04/20 10:09:32;;;;;;;14.80;13.40;;;7.80;99.90;;;8.04;85.94;97578.53;5155477;28;20679;-64
2023/04/20 10:12:11;;;;;;;15.40;13.83;;;7.70;99.90;;;7.93;84.19;97579.56;5162243;28;20248;-62
2023/04/20 10:14:55;;;;;;;15.27;13.77;;;7.60;99.90;;;8.04;83.58;97574.34;5180928;28;20293;-63
2023/04/20 10:17:32;;;;;;;15.00;13.50;;;7.70;99.90;;;7.58;85.59;97566.38;5214362;28;20223;-63
2023/04/20 10:20:20;;;;;;;15.17;13.57;;;7.50;99.90;;;7.66;86.46;97574.47;5167633;28;20207;-63
2023/04/20 10:23:06;;;;;;;15.93;14.27;;;7.40;99.90;;;7.83;88.21;97573.00;5152346;28;20308;-63
2023/04/20 10:25:40;;;;;;;22.20;19.73;;;7.50;99.90;;;7.80;88.72;97570.25;5180588;28;20215;-65
2023/04/20 10:28:13;;;;;;;17.30;15.50;;;7.50;99.90;;;7.65;86.28;97573.59;5157030;28;20199;-65
2023/04/20 10:30:51;;;;;;;17.70;15.90;;;7.40;99.90;;;7.58;87.83;97581.63;5157876;28;20254;-65
2023/04/20 10:33:25;;;;;;;17.77;15.90;;;7.40;99.90;;;7.48;86.84;97578.41;5168547;28;20223;-63
2023/04/20 10:35:58;;;;;;;17.53;15.67;;;7.30;99.90;;;7.51;87.54;97573.50;5159994;28;20227;-63
2023/04/20 10:38:35;;;;;;;16.90;15.20;;;7.30;99.90;;;7.45;86.91;97571.44;5148856;28;20200;-63
2023/04/20 10:41:09;;;;;;;16.87;15.17;;;7.20;99.90;;;7.54;86.78;97566.06;5153673;28;20234;-62
2023/04/20 10:43:42;;;;;;;17.77;15.97;;;7.30;99.90;;;7.92;85.71;97577.78;5169021;28;20211;-63
2023/04/20 10:46:16;;;;;;;15.87;14.33;;;7.50;99.90;;;8.13;84.53;97569.81;5168654;28;20311;-63
2023/04/20 10:48:54;;;;;;;15.97;14.47;;;7.60;99.90;;;7.97;82.66;97563.69;5160977;28;20588;-63